Airfield :
LOGIN :

Register | Disclaimer

   EN    FR    IT 

 










Legend :    VFR   Marginal VFR   IFR   Intensive IFR   Very Intensive IFR
Visi :
Ceiling :
>= 8 km
>= 3000ft
5 to 8 km
1000 to 3000 ft
1500m to 5 km
500 to 1000 ft
800 to 1500m
200 to 500 ft
< 800m
< 200 ft
Symbols :   Thunderstorms  Fog  Heavy snow  Heavy precipitations  Wind > 20 kt
SIGMETs :     Misc.  Thunderstorms  Icing  Turbulence  Mountain Waves  Volcanic Ashes






- Airport Elevation : 297 ft
- IATA code : ODB


LEBA - Córdoba

CURRENT METAR :
  • 162130Z AUTO 23004KT 200V290 CAVOK 27/08 Q1010

EXPIRED METARs :
  • 162100Z AUTO 21005KT 180V280 CAVOK 29/10 Q1009
  • 162030Z AUTO 33004KT 280V010 CAVOK 29/11 Q1009
  • 162000Z AUTO 30005KT CAVOK 29/08 Q1009
  • 161930Z AUTO 26006KT CAVOK 30/08 Q1008
  • 161900Z AUTO 26007KT 230V290 CAVOK 31/08 Q1008

TAF TAF LEBA
Valid from the 16 at 15:00 until the 17 at 15:00 UTC


161400Z 1615/1715 24009KT CAVOK TX34/1615Z TN18/1705Z



MET'MAP, your aeronautical weather chart ! - Copyright ORBIFLY December 2007 - Disclaimer

ORBIFLY MET'MAP TEAM :

Programming & Development : Alexandra Zaïnal
Original concept : Baudouin d'Aumeries
Technical & hardware support : Manuel Goepfert
Assistance : Marc-Olivier Méhu




SOURCES & CREDITS :

   NOAA